Time;durP1;ratioP1;P1;durP2;ratioP2;P2;SDS_P1;SDS_P2;PMS_P1;PMS_P2;Temp;Humidity;BMP_temperature;BMP_pressure;BME280_temperature;BME280_humidity;BME280_pressure;Samples;Min_cycle;Max_cycle;Signal;HPM_P1;HPM_P2
2022/09/25 00:00:31;;;;;;;39.97;25.02;;;;;;;-145.01;100.00;64805.59;5055062;28;20490;-56
2022/09/25 00:02:57;;;;;;;43.50;24.33;;;;;;;-145.01;100.00;64805.59;5055325;28;20032;-55
2022/09/25 00:05:22;;;;;;;45.72;26.17;;;;;;;-145.01;100.00;64805.59;5054130;28;20052;-55
2022/09/25 00:07:47;;;;;;;44.85;27.02;;;;;;;-145.01;100.00;64805.59;5051398;28;20025;-55
2022/09/25 00:10:13;;;;;;;48.28;26.90;;;;;;;-145.01;100.00;64805.59;5051330;28;20521;-54
2022/09/25 00:12:38;;;;;;;46.38;26.95;;;;;;;-145.01;100.00;64805.59;5055624;28;20446;-56
2022/09/25 00:15:04;;;;;;;47.08;27.33;;;;;;;-145.01;100.00;64805.59;5050735;28;20403;-54
2022/09/25 00:17:29;;;;;;;48.25;27.20;;;;;;;-145.01;100.00;64805.59;5057779;28;20066;-55
2022/09/25 00:19:55;;;;;;;51.22;28.10;;;;;;;-145.01;100.00;64805.59;5054918;28;20048;-55
2022/09/25 00:22:22;;;;;;;44.17;26.88;;;;;;;-145.01;100.00;64805.59;5050919;28;20308;-55
2022/09/25 00:24:47;;;;;;;45.08;26.63;;;;;;;-145.01;100.00;64805.59;5056556;28;20388;-55
2022/09/25 00:27:13;;;;;;;45.55;26.90;;;;;;;-145.01;100.00;64805.59;5057531;28;20483;-56
2022/09/25 00:29:39;;;;;;;50.10;27.17;;;;;;;-145.01;100.00;64805.59;5051091;28;20584;-56
2022/09/25 00:32:05;;;;;;;49.67;27.98;;;;;;;-145.01;100.00;64805.59;5056417;28;20303;-54
2022/09/25 00:34:31;;;;;;;61.75;29.73;;;;;;;-145.01;100.00;64805.59;5059880;28;20036;-56
2022/09/25 00:36:56;;;;;;;53.65;29.08;;;;;;;-145.01;100.00;64805.59;5050500;28;20483;-54
2022/09/25 00:39:21;;;;;;;58.47;31.25;;;;;;;-145.01;100.00;64805.59;5061399;28;20475;-56
2022/09/25 00:41:47;;;;;;;55.92;29.88;;;;;;;-145.01;100.00;64805.59;5050185;28;20094;-55
2022/09/25 00:44:52;;;;;;;60.97;31.30;;;;;;;-145.01;100.00;64805.59;5055330;28;20025;-55
2022/09/25 00:47:19;;;;;;;59.35;32.90;;;;;;;-145.01;100.00;64805.59;5056300;28;20025;-56
2022/09/25 00:49:45;;;;;;;58.10;30.90;;;;;;;-145.01;100.00;64805.59;5051933;28;20263;-56
2022/09/25 00:52:12;;;;;;;61.70;33.17;;;;;;;-145.01;100.00;64805.59;5051766;28;20422;-56
2022/09/25 00:54:41;;;;;;;62.60;33.17;;;;;;;-145.01;100.00;64805.59;5056728;28;20029;-55
2022/09/25 00:57:08;;;;;;;74.23;34.93;;;;;;;-145.01;100.00;64805.59;5082460;28;20032;-56
2022/09/25 00:59:36;;;;;;;74.88;34.72;;;;;;;-145.01;100.00;64805.59;5048455;28;20029;-56
2022/09/25 01:02:02;;;;;;;68.75;34.72;;;;;;;-145.01;100.00;64805.59;5048827;28;20021;-55
2022/09/25 01:04:27;;;;;;;69.65;35.40;;;;;;;-145.01;100.00;64805.59;5048046;28;20106;-55
2022/09/25 01:06:53;;;;;;;77.30;37.92;;;;;;;-145.01;100.00;64805.59;5040775;28;20112;-55
2022/09/25 01:09:18;;;;;;;67.05;34.30;;;;;;;-145.01;100.00;64805.59;5051215;28;20365;-55
2022/09/25 01:11:44;;;;;;;81.85;40.85;;;;;;;-145.01;100.00;64805.59;5060786;28;20028;-56
2022/09/25 01:14:09;;;;;;;78.22;37.17;;;;;;;-145.01;100.00;64805.59;5054646;28;20033;-55
2022/09/25 01:16:41;;;;;;;73.93;37.78;;;;;;;-145.01;100.00;64805.59;5059443;28;20028;-55
2022/09/25 01:19:30;;;;;;;69.10;33.58;;;;;;;-145.01;100.00;64805.59;5086876;28;20487;-55
2022/09/25 01:22:01;;;;;;;72.35;37.33;;;;;;;-145.01;100.00;64805.59;5049843;28;20029;-55
2022/09/25 01:25:08;;;;;;;70.80;36.08;;;;;;;-145.01;100.00;64805.59;5049603;28;20033;-55
2022/09/25 01:27:58;;;;;;;79.32;37.28;;;;;;;-145.01;100.00;64805.59;5005481;28;20064;-56
2022/09/25 01:30:25;;;;;;;71.05;35.47;;;;;;;-145.01;100.00;64805.59;5062452;28;20036;-55
2022/09/25 01:32:55;;;;;;;72.03;36.67;;;;;;;-145.01;100.00;64805.59;5052305;28;20028;-55
2022/09/25 01:35:42;;;;;;;72.53;32.75;;;;;;;-145.01;100.00;64805.59;5088428;28;20025;-55
2022/09/25 01:38:33;;;;;;;78.22;38.38;;;;;;;-145.01;100.00;64805.59;5048108;28;20025;-55
2022/09/25 01:41:11;;;;;;;;;;;;;;;-145.01;100.00;64805.59;5053001;28;20467;-55
2022/09/25 01:43:42;;;;;;;80.40;37.85;;;;;;;-145.01;100.00;64805.59;5048016;28;19921;-52
2022/09/25 01:46:12;;;;;;;87.03;39.75;;;;;;;-145.01;100.00;64805.59;5044851;28;20027;-55
2022/09/25 01:48:38;;;;;;;89.82;40.90;;;;;;;-145.01;100.00;64805.59;5041681;28;20048;-55
2022/09/25 01:51:15;;;;;;;91.82;40.60;;;;;;;-145.01;100.00;64805.59;5031640;28;20064;-55
2022/09/25 01:53:43;;;;;;;83.72;41.42;;;;;;;-145.01;100.00;64805.59;5032602;28;20059;-55
2022/09/25 01:56:31;;;;;;;89.60;40.55;;;;;;;-145.01;100.00;64805.59;5047655;28;20029;-56
2022/09/25 01:59:10;;;;;;;84.25;39.63;;;;;;;-145.01;100.00;64805.59;5048652;28;20643;-55
2022/09/25 02:01:38;;;;;;;83.30;38.40;;;;;;;-145.01;100.00;64805.59;5036646;28;20033;-55
2022/09/25 02:04:13;;;;;;;79.68;37.13;;;;;;;-145.01;100.00;64805.59;5085617;28;20033;-54
2022/09/25 02:06:38;;;;;;;92.43;39.72;;;;;;;-145.01;100.00;64805.59;5032044;28;20024;-54
2022/09/25 02:09:06;;;;;;;89.47;41.67;;;;;;;-145.01;100.00;64805.59;5056141;28;20028;-55
2022/09/25 02:11:38;;;;;;;82.85;39.47;;;;;;;-145.01;100.00;64805.59;5086088;28;20031;-54
2022/09/25 02:14:19;;;;;;;93.53;40.72;;;;;;;-145.01;100.00;64805.59;5047928;28;20107;-55
2022/09/25 02:16:44;;;;;;;;;;;;;;;-145.01;100.00;64805.59;5047822;28;20025;-55
2022/09/25 02:22:13;;;;;;;96.13;42.08;;;;;;;-145.01;100.00;64805.59;5056272;28;20032;-55
2022/09/25 02:25:02;;;;;;;92.18;39.70;;;;;;;-145.01;100.00;64805.59;5052276;28;20035;-55
2022/09/25 02:27:28;;;;;;;78.60;37.33;;;;;;;-145.01;100.00;64805.59;5031331;28;20392;-55
2022/09/25 02:29:54;;;;;;;83.68;39.17;;;;;;;-145.01;100.00;64805.59;5059091;28;20028;-55
2022/09/25 02:32:29;;;;;;;91.30;41.08;;;;;;;-145.01;100.00;64805.59;5049946;28;20036;-56
2022/09/25 02:34:55;;;;;;;85.85;39.35;;;;;;;-145.01;100.00;64805.59;5052796;28;20025;-55
2022/09/25 02:37:20;;;;;;;92.35;40.28;;;;;;;-145.01;100.00;64805.59;5054612;28;20245;-56
2022/09/25 02:39:48;;;;;;;101.13;43.83;;;;;;;-145.01;100.00;64805.59;5053350;28;20349;-55
2022/09/25 02:42:45;;;;;;;95.10;40.13;;;;;;;-145.01;100.00;64805.59;5053601;28;20029;-55
2022/09/25 02:45:37;;;;;;;92.97;40.47;;;;;;;-145.01;100.00;64805.59;5047713;28;20045;-56
2022/09/25 02:48:06;;;;;;;95.68;41.53;;;;;;;-145.01;100.00;64805.59;5048436;28;20021;-55
2022/09/25 02:50:41;;;;;;;92.32;40.97;;;;;;;-145.01;100.00;64805.59;5048454;28;20016;-55
2022/09/25 02:53:07;;;;;;;76.82;36.22;;;;;;;-145.01;100.00;64805.59;5047124;28;20029;-55
2022/09/25 02:55:35;;;;;;;87.75;40.20;;;;;;;-145.01;100.00;64805.59;5047037;28;20055;-54
2022/09/25 02:58:21;;;;;;;90.00;37.75;;;;;;;-145.01;100.00;64805.59;5052950;28;20021;-55
2022/09/25 03:00:47;;;;;;;88.97;38.60;;;;;;;-145.01;100.00;64805.59;5043269;28;20025;-55
2022/09/25 03:03:14;;;;;;;86.13;40.90;;;;;;;-145.01;100.00;64805.59;5087827;28;20379;-55
2022/09/25 03:05:39;;;;;;;89.40;41.22;;;;;;;-145.01;100.00;64805.59;5056340;28;20510;-55
2022/09/25 03:10:49;;;;;;;76.28;36.65;;;;;;;-145.01;100.00;64805.59;5046585;28;20098;-54
2022/09/25 03:13:16;;;;;;;95.22;40.30;;;;;;;-145.01;100.00;64805.59;5081585;28;20028;-56
2022/09/25 03:15:44;;;;;;;89.30;39.97;;;;;;;-145.01;100.00;64805.59;5057948;28;20105;-55
2022/09/25 03:18:11;;;;;;;85.90;40.42;;;;;;;-145.01;100.00;64805.59;5051936;28;20032;-56
2022/09/25 03:20:36;;;;;;;84.47;39.70;;;;;;;-145.01;100.00;64805.59;5041886;28;20028;-56
2022/09/25 03:23:01;;;;;;;84.15;39.55;;;;;;;-145.01;100.00;64805.59;5047759;28;20024;-55
2022/09/25 03:25:27;;;;;;;80.97;38.42;;;;;;;-145.01;100.00;64805.59;5047556;28;20547;-56
2022/09/25 03:27:52;;;;;;;73.90;36.90;;;;;;;-145.01;100.00;64805.59;5054790;28;20021;-56
2022/09/25 03:30:18;;;;;;;76.70;38.58;;;;;;;-145.01;100.00;64805.59;5051157;28;20604;-56
2022/09/25 03:32:43;;;;;;;75.43;37.50;;;;;;;-145.01;100.00;64805.59;5061282;28;20033;-55
2022/09/25 03:35:09;;;;;;;75.57;37.22;;;;;;;-145.01;100.00;64805.59;5054688;28;20024;-55
2022/09/25 03:37:34;;;;;;;72.60;37.42;;;;;;;-145.01;100.00;64805.59;5053776;28;20040;-55
2022/09/25 03:40:00;;;;;;;77.22;38.13;;;;;;;-145.01;100.00;64805.59;5050798;28;20024;-55
2022/09/25 03:42:26;;;;;;;84.53;39.33;;;;;;;-145.01;100.00;64805.59;5055209;28;20017;-56
2022/09/25 03:44:52;;;;;;;74.60;37.78;;;;;;;-145.01;100.00;64805.59;5050921;28;20513;-55
2022/09/25 03:47:17;;;;;;;69.90;37.40;;;;;;;-145.01;100.00;64805.59;5054228;28;20484;-55
2022/09/25 03:49:43;;;;;;;75.50;36.42;;;;;;;-145.01;100.00;64805.59;5057462;28;20017;-55
2022/09/25 03:52:13;;;;;;;79.55;37.42;;;;;;;-145.01;100.00;64805.59;5051590;28;20445;-56
2022/09/25 03:54:39;;;;;;;71.28;36.92;;;;;;;-145.01;100.00;64805.59;5049830;28;20033;-55
2022/09/25 03:57:04;;;;;;;71.63;36.35;;;;;;;-145.01;100.00;64805.59;5056716;28;20090;-55
2022/09/25 03:59:30;;;;;;;67.53;36.50;;;;;;;-145.01;100.00;64805.59;5054425;28;20048;-55
2022/09/25 04:01:55;;;;;;;70.55;36.08;;;;;;;-145.01;100.00;64805.59;5050568;28;20112;-56
2022/09/25 04:04:21;;;;;;;66.43;35.35;;;;;;;-145.01;100.00;64805.59;5059991;28;20449;-55
2022/09/25 04:06:46;;;;;;;69.35;35.97;;;;;;;-145.01;100.00;64805.59;5059841;28;20029;-54
2022/09/25 04:09:12;;;;;;;78.57;36.58;;;;;;;-145.01;100.00;64805.59;5055258;28;20021;-56
2022/09/25 04:11:37;;;;;;;74.32;35.80;;;;;;;-145.01;100.00;64805.59;5056194;28;20383;-56
2022/09/25 04:14:04;;;;;;;82.85;37.72;;;;;;;-145.01;100.00;64805.59;5050774;28;20029;-55
2022/09/25 04:16:30;;;;;;;78.28;37.17;;;;;;;-145.01;100.00;64805.59;5054476;28;20513;-56
2022/09/25 04:18:55;;;;;;;84.75;38.85;;;;;;;-145.01;100.00;64805.59;5050942;28;20496;-54
2022/09/25 04:21:21;;;;;;;78.07;38.35;;;;;;;-145.01;100.00;64805.59;5054056;28;20025;-56
2022/09/25 04:24:47;;;;;;;74.80;35.72;;;;;;;-145.01;100.00;64805.59;5056776;28;20403;-55
2022/09/25 04:26:32;;;;;;;84.55;39.83;;;;;;;-145.01;100.00;64805.59;5057583;28;20120;-55
2022/09/25 04:29:00;;;;;;;84.97;39.05;;;;;;;-145.01;100.00;64805.59;5049158;28;20494;-55
2022/09/25 04:31:26;;;;;;;81.45;38.85;;;;;;;-145.01;100.00;64805.59;5050536;28;20013;-55
2022/09/25 04:33:51;;;;;;;79.40;37.45;;;;;;;-145.01;100.00;64805.59;5050963;28;20037;-55
2022/09/25 04:36:17;;;;;;;82.07;38.72;;;;;;;-145.01;100.00;64805.59;5050231;28;20455;-54
2022/09/25 04:38:43;;;;;;;82.82;39.38;;;;;;;-145.01;100.00;64805.59;5050634;28;20017;-56
2022/09/25 04:41:08;;;;;;;83.70;39.45;;;;;;;-145.01;100.00;64805.59;5050589;28;20379;-55
2022/09/25 04:43:34;;;;;;;87.75;39.63;;;;;;;-145.01;100.00;64805.59;5059110;28;20407;-56
2022/09/25 04:46:09;;;;;;;90.25;40.17;;;;;;;-145.01;100.00;64805.59;5057339;28;20025;-52
2022/09/25 04:48:35;;;;;;;92.43;40.33;;;;;;;-145.01;100.00;64805.59;5057998;28;20017;-54
2022/09/25 04:51:00;;;;;;;91.18;39.72;;;;;;;-145.01;100.00;64805.59;5057095;28;20032;-54
2022/09/25 04:53:28;;;;;;;85.75;38.35;;;;;;;-145.01;100.00;64805.59;5056658;28;20518;-54
2022/09/25 04:55:54;;;;;;;86.45;39.67;;;;;;;-145.01;100.00;64805.59;5056570;28;20075;-54
2022/09/25 04:58:19;;;;;;;86.15;38.83;;;;;;;-145.01;100.00;64805.59;5054940;28;20108;-54
2022/09/25 05:00:45;;;;;;;87.45;39.13;;;;;;;-145.01;100.00;64805.59;5051510;28;20081;-54
2022/09/25 05:03:10;;;;;;;90.80;39.97;;;;;;;-145.01;100.00;64805.59;5057409;28;20032;-54
2022/09/25 05:05:35;;;;;;;81.93;39.55;;;;;;;-145.01;100.00;64805.59;5057654;28;20041;-54
2022/09/25 05:08:01;;;;;;;86.53;38.10;;;;;;;-145.01;100.00;64805.59;5058325;28;20032;-56
2022/09/25 05:10:29;;;;;;;87.00;38.20;;;;;;;-145.01;100.00;64805.59;5050220;28;20048;-54
2022/09/25 05:12:59;;;;;;;85.53;39.05;;;;;;;-145.01;100.00;64805.59;5050961;28;20033;-54
2022/09/25 05:15:25;;;;;;;93.32;40.60;;;;;;;-145.01;100.00;64805.59;5053927;28;20025;-54
2022/09/25 05:17:57;;;;;;;82.13;37.88;;;;;;;-145.01;100.00;64805.59;5057356;28;20502;-52
2022/09/25 05:20:23;;;;;;;80.68;36.45;;;;;;;-145.01;100.00;64805.59;5050906;28;20061;-53
2022/09/25 05:22:48;;;;;;;80.63;36.17;;;;;;;-145.01;100.00;64805.59;5051836;28;20064;-54
2022/09/25 05:25:14;;;;;;;83.43;37.95;;;;;;;-145.01;100.00;64805.59;5065350;28;20040;-54
2022/09/25 05:27:39;;;;;;;78.85;35.97;;;;;;;-145.01;100.00;64805.59;5051205;28;20337;-54
2022/09/25 05:30:07;;;;;;;86.05;38.15;;;;;;;-145.01;100.00;64805.59;5054119;28;20029;-55
2022/09/25 05:32:33;;;;;;;80.55;36.50;;;;;;;-145.01;100.00;64805.59;5054527;28;20043;-54
2022/09/25 05:34:58;;;;;;;75.57;35.20;;;;;;;-145.01;100.00;64805.59;5056426;28;20024;-54
2022/09/25 05:37:23;;;;;;;70.05;33.13;;;;;;;-145.01;100.00;64805.59;5051495;28;20447;-55
2022/09/25 05:39:49;;;;;;;68.40;32.58;;;;;;;-145.01;100.00;64805.59;5050235;28;20078;-56
2022/09/25 05:42:18;;;;;;;62.17;31.10;;;;;;;-145.01;100.00;64805.59;5057331;28;20476;-54
2022/09/25 05:44:43;;;;;;;70.00;31.73;;;;;;;-145.01;100.00;64805.59;5054905;28;20025;-53
2022/09/25 05:47:09;;;;;;;61.72;29.73;;;;;;;-145.01;100.00;64805.59;5054366;28;20033;-53
2022/09/25 05:49:34;;;;;;;64.85;31.60;;;;;;;-145.01;100.00;64805.59;5057201;28;20037;-51
2022/09/25 05:52:00;;;;;;;60.30;27.42;;;;;;;-145.01;100.00;64805.59;5061635;28;20047;-54
2022/09/25 05:54:25;;;;;;;62.20;29.25;;;;;;;-145.01;100.00;64805.59;5075189;28;20474;-53
2022/09/25 05:56:51;;;;;;;60.58;28.83;;;;;;;-145.01;100.00;64805.59;5050684;28;20021;-54
2022/09/25 05:59:16;;;;;;;56.70;27.05;;;;;;;-145.01;100.00;64805.59;5055309;28;20032;-53
2022/09/25 06:01:41;;;;;;;48.67;24.58;;;;;;;-145.01;100.00;64805.59;5049962;28;20029;-54
2022/09/25 06:04:07;;;;;;;45.88;23.25;;;;;;;-145.01;100.00;64805.59;5053878;28;20024;-51
2022/09/25 06:06:32;;;;;;;48.10;24.08;;;;;;;-145.01;100.00;64805.59;5055429;28;20032;-54
2022/09/25 06:08:58;;;;;;;43.50;22.85;;;;;;;-145.01;100.00;64805.59;5053215;28;20371;-54
2022/09/25 06:11:23;;;;;;;39.72;22.20;;;;;;;-145.01;100.00;64805.59;5049981;28;20410;-54
2022/09/25 06:13:49;;;;;;;38.30;20.30;;;;;;;-145.01;100.00;64805.59;5048549;28;20648;-53
2022/09/25 06:16:18;;;;;;;46.53;21.42;;;;;;;-145.01;100.00;64805.59;5049355;28;20039;-53
2022/09/25 06:18:44;;;;;;;39.22;20.83;;;;;;;-145.01;100.00;64805.59;5050104;28;20394;-54
2022/09/25 06:21:09;;;;;;;37.97;20.08;;;;;;;-145.01;100.00;64805.59;5049801;28;20112;-54
2022/09/25 06:23:35;;;;;;;34.75;18.58;;;;;;;-145.01;100.00;64805.59;5058716;28;20036;-54
2022/09/25 06:26:04;;;;;;;40.08;19.55;;;;;;;-145.01;100.00;64805.59;5057705;28;20035;-54
2022/09/25 06:28:30;;;;;;;37.53;19.40;;;;;;;-145.01;100.00;64805.59;5054695;28;20037;-54
2022/09/25 06:30:58;;;;;;;32.67;18.58;;;;;;;-145.01;100.00;64805.59;5054349;28;20048;-55
2022/09/25 06:33:24;;;;;;;38.20;17.50;;;;;;;-145.01;100.00;64805.59;5052009;28;20035;-53
2022/09/25 06:35:49;;;;;;;28.90;15.50;;;;;;;-145.01;100.00;64805.59;5053889;28;20032;-54
2022/09/25 06:38:15;;;;;;;29.60;16.58;;;;;;;-145.01;100.00;64805.59;5053573;28;20055;-54
2022/09/25 06:40:41;;;;;;;29.15;16.63;;;;;;;-145.01;100.00;64805.59;5053138;28;20266;-54
2022/09/25 06:43:08;;;;;;;35.22;19.58;;;;;;;-145.01;100.00;64805.59;5057601;28;20100;-54
2022/09/25 06:45:34;;;;;;;43.03;24.33;;;;;;;-145.01;100.00;64805.59;5055090;28;20033;-53
2022/09/25 06:48:03;;;;;;;25.38;12.95;;;;;;;-145.01;100.00;64805.59;5049411;28;20047;-54
2022/09/25 06:50:31;;;;;;;61.80;41.13;;;;;;;-145.01;100.00;64805.59;5054533;28;20439;-54
2022/09/25 06:53:00;;;;;;;29.40;16.23;;;;;;;-145.01;100.00;64805.59;5048215;28;20494;-55
2022/09/25 06:55:26;;;;;;;28.00;15.43;;;;;;;-145.01;100.00;64805.59;5056564;28;20029;-55
2022/09/25 06:57:52;;;;;;;28.33;15.15;;;;;;;-145.01;100.00;64805.59;5049264;28;20021;-54
2022/09/25 07:00:17;;;;;;;21.98;13.02;;;;;;;-145.01;100.00;64805.59;5060957;28;20070;-55
2022/09/25 07:05:32;;;;;;;26.42;14.50;;;;;;;-145.01;100.00;64805.59;5040134;28;20049;-55
2022/09/25 07:07:57;;;;;;;31.90;17.63;;;;;;;-145.01;100.00;64805.59;5049064;28;20040;-55
2022/09/25 07:10:22;;;;;;;30.58;16.95;;;;;;;-145.01;100.00;64805.59;5061803;28;20054;-53
2022/09/25 07:12:48;;;;;;;42.38;24.30;;;;;;;-145.01;100.00;64805.59;5054406;28;20025;-55
2022/09/25 07:15:14;;;;;;;37.22;19.73;;;;;;;-145.01;100.00;64805.59;5055107;28;20036;-54
2022/09/25 07:17:46;;;;;;;36.17;19.15;;;;;;;-145.01;100.00;64805.59;5056976;28;20048;-55
2022/09/25 07:20:14;;;;;;;33.47;17.67;;;;;;;-145.01;100.00;64805.59;5052486;28;20443;-55
2022/09/25 07:22:40;;;;;;;26.13;15.27;;;;;;;-145.01;100.00;64805.59;5052820;28;20391;-54
2022/09/25 07:25:05;;;;;;;24.25;14.20;;;;;;;-145.01;100.00;64805.59;5054348;28;20057;-55
2022/09/25 07:27:31;;;;;;;22.27;13.43;;;;;;;-145.01;100.00;64805.59;5054795;28;20527;-54
2022/09/25 07:29:56;;;;;;;25.05;15.23;;;;;;;-145.01;100.00;64805.59;5046873;28;20024;-55
2022/09/25 07:32:22;;;;;;;22.45;13.60;;;;;;;-145.01;100.00;64805.59;5049229;28;20033;-55
2022/09/25 07:34:49;;;;;;;27.80;15.70;;;;;;;-145.01;100.00;64805.59;5054736;28;20043;-54
2022/09/25 07:37:15;;;;;;;26.10;14.85;;;;;;;-145.01;100.00;64805.59;5055054;28;20029;-55
2022/09/25 07:39:41;;;;;;;22.15;14.15;;;;;;;-145.01;100.00;64805.59;5051960;28;20048;-56
2022/09/25 07:42:07;;;;;;;22.15;13.75;;;;;;;-145.01;100.00;64805.59;5053631;28;20036;-54
2022/09/25 07:44:32;;;;;;;23.45;15.27;;;;;;;-145.01;100.00;64805.59;5050978;28;20558;-55
2022/09/25 07:47:01;;;;;;;25.27;15.15;;;;;;;-145.01;100.00;64805.59;5049063;28;20037;-54
2022/09/25 07:49:27;;;;;;;26.42;14.52;;;;;;;-145.01;100.00;64805.59;5048805;28;20036;-54
2022/09/25 07:51:53;;;;;;;26.33;16.08;;;;;;;-145.01;100.00;64805.59;5049941;28;20043;-55
2022/09/25 07:54:18;;;;;;;27.08;16.85;;;;;;;-145.01;100.00;64805.59;5049978;28;20479;-54
2022/09/25 07:56:44;;;;;;;36.63;23.17;;;;;;;-145.01;100.00;64805.59;5051426;28;20028;-54
2022/09/25 07:59:09;;;;;;;28.65;16.33;;;;;;;-145.01;100.00;64805.59;5057656;28;20040;-54
2022/09/25 08:01:34;;;;;;;31.30;17.63;;;;;;;-145.01;100.00;64805.59;5052512;28;20079;-55
2022/09/25 08:04:00;;;;;;;36.08;19.27;;;;;;;-145.01;100.00;64805.59;5058769;28;20040;-54
2022/09/25 08:06:25;;;;;;;31.90;18.58;;;;;;;-145.01;100.00;64805.59;5051598;28;20396;-55
2022/09/25 08:08:51;;;;;;;36.65;21.17;;;;;;;-145.01;100.00;64805.59;5047509;28;20025;-55
2022/09/25 08:11:17;;;;;;;38.20;20.63;;;;;;;-145.01;100.00;64805.59;5053883;28;20051;-54
2022/09/25 08:13:42;;;;;;;39.45;19.45;;;;;;;-145.01;100.00;64805.59;5054842;28;20366;-54
2022/09/25 08:16:12;;;;;;;37.28;21.00;;;;;;;-145.01;100.00;64805.59;5054400;28;20086;-55
2022/09/25 08:18:42;;;;;;;56.75;30.17;;;;;;;-145.01;100.00;64805.59;5057710;28;20081;-54
2022/09/25 08:21:08;;;;;;;35.42;19.33;;;;;;;-145.01;100.00;64805.59;5060993;28;21421;-55
2022/09/25 08:23:34;;;;;;;41.17;20.85;;;;;;;-145.01;100.00;64805.59;5052310;28;20045;-54
2022/09/25 08:25:59;;;;;;;37.25;19.05;;;;;;;-145.01;100.00;64805.59;5056562;28;20036;-55
2022/09/25 08:28:25;;;;;;;64.00;32.65;;;;;;;-145.01;100.00;64805.59;5052430;28;20033;-55
2022/09/25 08:30:50;;;;;;;35.35;21.08;;;;;;;-145.01;100.00;64805.59;5057859;28;20024;-56
2022/09/25 08:33:15;;;;;;;37.13;20.63;;;;;;;-145.01;100.00;64805.59;5054371;28;20036;-55
2022/09/25 08:35:41;;;;;;;35.65;20.20;;;;;;;-145.01;100.00;64805.59;5058955;28;20017;-54
2022/09/25 08:38:07;;;;;;;38.22;19.92;;;;;;;-145.01;100.00;64805.59;5051913;28;20017;-55
2022/09/25 08:40:33;;;;;;;44.30;19.35;;;;;;;-145.01;100.00;64805.59;5051732;28;20380;-54
2022/09/25 08:42:58;;;;;;;51.30;20.60;;;;;;;-145.01;100.00;64805.59;5057428;28;20052;-54
2022/09/25 08:51:10;;;;;;;41.45;19.70;;;;;;;-145.01;100.00;64805.59;5050319;28;20094;-54
2022/09/25 08:53:35;;;;;;;34.22;17.65;;;;;;;-145.01;100.00;64805.59;5051508;28;20033;-54
2022/09/25 08:56:16;;;;;;;37.10;18.35;;;;;;;-145.01;100.00;64805.59;5072098;28;20445;-54
2022/09/25 08:58:55;;;;;;;48.25;17.27;;;;;;;-145.01;100.00;64805.59;5059145;28;20028;-55
2022/09/25 09:01:25;;;;;;;35.58;16.63;;;;;;;-145.01;100.00;64805.59;5063230;28;20028;-54
2022/09/25 09:04:11;;;;;;;34.10;16.98;;;;;;;-145.01;100.00;64805.59;5061207;28;20028;-54
2022/09/25 09:06:36;;;;;;;36.00;17.88;;;;;;;-145.01;100.00;64805.59;5063354;28;20025;-55
2022/09/25 09:09:08;;;;;;;36.80;17.60;;;;;;;-145.01;100.00;64805.59;5051878;28;20025;-54
2022/09/25 09:11:55;;;;;;;30.00;15.32;;;;;;;-145.01;100.00;64805.59;5073085;28;20387;-55
2022/09/25 09:14:20;;;;;;;30.83;15.20;;;;;;;-145.01;100.00;64805.59;5055281;28;20025;-54
2022/09/25 09:17:06;;;;;;;39.05;14.75;;;;;;;-145.01;100.00;64805.59;5038881;28;20090;-54
2022/09/25 09:19:32;;;;;;;41.75;15.13;;;;;;;-145.01;100.00;64805.59;5040760;28;20031;-55
2022/09/25 09:22:10;;;;;;;41.58;15.40;;;;;;;-145.01;100.00;64805.59;5055758;28;20021;-53
2022/09/25 09:24:53;;;;;;;29.30;14.45;;;;;;;-145.01;100.00;64805.59;5049665;28;20037;-55
2022/09/25 09:27:21;;;;;;;28.48;14.30;;;;;;;-145.01;100.00;64805.59;5049746;28;20043;-55
2022/09/25 09:30:08;;;;;;;36.75;14.98;;;;;;;-145.01;100.00;64805.59;5050022;28;20120;-55
2022/09/25 09:32:52;;;;;;;34.72;13.48;;;;;;;-145.01;100.00;64805.59;5057199;28;20021;-54
2022/09/25 09:35:37;;;;;;;27.73;13.98;;;;;;;-145.01;100.00;64805.59;5050245;28;20090;-55
2022/09/25 09:38:14;;;;;;;34.45;15.65;;;;;;;-145.01;100.00;64805.59;5054329;28;20036;-54
2022/09/25 09:40:45;;;;;;;30.58;14.00;;;;;;;-145.01;100.00;64805.59;5057280;28;20025;-54
2022/09/25 09:43:30;;;;;;;26.42;11.85;;;;;;;-145.01;100.00;64805.59;5055183;28;20339;-54
2022/09/25 09:46:14;;;;;;;30.67;11.23;;;;;;;-145.01;100.00;64805.59;5056190;28;20036;-54
2022/09/25 09:48:52;;;;;;;28.90;11.73;;;;;;;-145.01;100.00;64805.59;5050335;28;20037;-55
2022/09/25 09:51:20;;;;;;;25.45;11.60;;;;;;;-145.01;100.00;64805.59;5049497;28;20116;-55
2022/09/25 09:53:54;;;;;;;29.58;11.23;;;;;;;-145.01;100.00;64805.59;5050974;28;20096;-55
2022/09/25 09:56:30;;;;;;;24.42;11.32;;;;;;;-145.01;100.00;64805.59;5055010;28;20045;-55
2022/09/25 09:59:04;;;;;;;27.55;9.88;;;;;;;-145.01;100.00;64805.59;5053443;28;20444;-55
2022/09/25 10:01:33;;;;;;;21.40;9.30;;;;;;;-145.01;100.00;64805.59;5064407;28;20135;-55
2022/09/25 10:04:15;;;;;;;23.45;10.15;;;;;;;-145.01;100.00;64805.59;5086361;28;20463;-55
2022/09/25 10:06:44;;;;;;;25.60;10.20;;;;;;;-145.01;100.00;64805.59;5064204;28;20040;-55
2022/09/25 10:09:14;;;;;;;27.70;11.18;;;;;;;-145.01;100.00;64805.59;5032621;28;20041;-54
2022/09/25 10:11:39;;;;;;;27.55;10.75;;;;;;;-145.01;100.00;64805.59;5083283;28;20040;-56
2022/09/25 10:14:04;;;;;;;27.33;10.60;;;;;;;-145.01;100.00;64805.59;5036655;28;20025;-55
2022/09/25 10:16:30;;;;;;;28.30;9.80;;;;;;;-145.01;100.00;64805.59;5057530;28;20028;-55
2022/09/25 10:19:18;;;;;;;24.65;8.73;;;;;;;-145.01;100.00;64805.59;5034603;28;20021;-55
2022/09/25 10:21:48;;;;;;;17.70;9.40;;;;;;;-145.01;100.00;64805.59;5048511;28;20021;-55
2022/09/25 10:24:52;;;;;;;29.75;10.27;;;;;;;-145.01;100.00;64805.59;5053263;28;20044;-54
2022/09/25 10:27:26;;;;;;;21.40;9.25;;;;;;;-145.01;100.00;64805.59;5057087;28;20127;-54
2022/09/25 10:30:09;;;;;;;26.95;9.48;;;;;;;-145.01;100.00;64805.59;5061659;28;20032;-54
2022/09/25 10:32:56;;;;;;;24.20;9.52;;;;;;;-145.01;100.00;64805.59;5049637;28;20514;-57
2022/09/25 10:35:36;;;;;;;23.52;9.27;;;;;;;-145.01;100.00;64805.59;5048560;28;20036;-57
2022/09/25 10:38:02;;;;;;;19.85;8.77;;;;;;;-145.01;100.00;64805.59;5055761;28;20116;-56
2022/09/25 10:40:35;;;;;;;25.83;10.13;;;;;;;-145.01;100.00;64805.59;5049313;28;20033;-56
2022/09/25 10:43:22;;;;;;;42.88;13.60;;;;;;;-145.01;100.00;64805.59;5059058;28;20036;-57
2022/09/25 10:45:48;;;;;;;32.35;10.80;;;;;;;-145.01;100.00;64805.59;5055501;28;20374;-57
2022/09/25 10:51:08;;;;;;;29.48;9.48;;;;;;;-145.01;100.00;64805.59;5055096;28;20079;-55
2022/09/25 10:53:34;;;;;;;24.17;10.13;;;;;;;-145.01;100.00;64805.59;5049810;28;20048;-57
2022/09/25 10:56:08;;;;;;;23.42;9.30;;;;;;;-145.01;100.00;64805.59;5052649;28;20021;-54
2022/09/25 10:59:00;;;;;;;22.80;8.27;;;;;;;-145.01;100.00;64805.59;5050557;28;20058;-54
2022/09/25 11:01:37;;;;;;;19.00;7.43;;;;;;;-145.01;100.00;64805.59;5045331;28;20048;-54
2022/09/25 11:04:11;;;;;;;15.52;7.50;;;;;;;-145.01;100.00;64805.59;5053883;28;20448;-54
2022/09/25 11:06:42;;;;;;;19.80;7.07;;;;;;;-145.01;100.00;64805.59;5087849;28;20531;-54
2022/09/25 11:09:10;;;;;;;;;;;;;;;-145.01;100.00;64805.59;5069625;28;20025;-54
2022/09/25 11:11:38;;;;;;;22.73;6.30;;;;;;;-145.01;100.00;64805.59;5049290;28;20371;-54
2022/09/25 11:14:04;;;;;;;24.20;6.28;;;;;;;-145.01;100.00;64805.59;5047943;28;20078;-58
2022/09/25 11:16:48;;;;;;;20.80;6.55;;;;;;;-145.01;100.00;64805.59;5048843;28;20570;-56
2022/09/25 11:19:21;;;;;;;17.85;6.45;;;;;;;-145.01;100.00;64805.59;5053506;28;20036;-56
2022/09/25 11:22:03;;;;;;;19.42;5.75;;;;;;;-145.01;100.00;64805.59;5081696;28;20021;-56